createdAt,value
2023-03-15T00:05:16.914Z,100125.78
2023-03-15T00:15:18.130Z,100150.44
2023-03-15T00:25:19.330Z,100163.88
2023-03-15T00:35:20.578Z,100180.03
2023-03-15T00:45:21.777Z,100195.38
2023-03-15T00:55:23.055Z,100208.22
2023-03-15T01:05:24.261Z,100207.97
2023-03-15T01:15:25.444Z,100214.63
2023-03-15T01:25:26.844Z,100209.94
2023-03-15T01:35:28.088Z,100196.81
2023-03-15T01:45:29.341Z,100209.56
2023-03-15T01:55:32.445Z,100221.44
2023-03-15T02:05:33.629Z,100237.47
2023-03-15T02:15:34.998Z,100257.00
2023-03-15T02:25:36.216Z,100261.16
2023-03-15T02:35:37.500Z,100276.53
2023-03-15T02:45:38.958Z,100293.56
2023-03-15T02:55:40.778Z,100303.63
2023-03-15T03:05:42.105Z,100315.59
2023-03-15T03:15:45.436Z,100319.72
2023-03-15T03:25:46.647Z,100325.50
2023-03-15T03:35:47.864Z,100345.69
2023-03-15T03:45:49.184Z,100352.69
2023-03-15T03:55:50.386Z,100362.16
2023-03-15T04:05:52.998Z,100354.50
2023-03-15T04:15:57.711Z,100358.13
2023-03-15T04:25:59.184Z,100377.94
2023-03-15T04:36:02.682Z,100384.50
2023-03-15T04:46:04.074Z,100377.63
2023-03-15T04:56:05.334Z,100392.16
2023-03-15T05:06:08.316Z,100392.16
2023-03-15T05:16:09.689Z,100400.00
2023-03-15T05:26:10.923Z,100406.00
2023-03-15T05:36:14.500Z,100408.06
2023-03-15T05:46:15.812Z,100411.00
2023-03-15T05:56:17.092Z,100428.22
2023-03-15T06:06:18.490Z,100438.56
2023-03-15T06:16:19.802Z,100442.84
2023-03-15T06:26:21.957Z,100451.81
2023-03-15T06:36:24.881Z,100467.47
2023-03-15T06:46:26.171Z,100474.00
2023-03-15T06:56:27.470Z,100490.38
2023-03-15T07:06:29.266Z,100487.88
2023-03-15T07:16:30.747Z,100482.22
2023-03-15T07:26:31.970Z,100495.06
2023-03-15T07:36:33.257Z,100504.22
2023-03-15T07:46:34.519Z,100503.81
2023-03-15T07:56:35.755Z,100496.34
2023-03-15T08:06:37.136Z,100500.97
2023-03-15T08:16:38.409Z,100511.75
2023-03-15T08:26:39.657Z,100521.75
2023-03-15T08:36:41.773Z,100527.97
2023-03-15T08:46:43.087Z,100524.81
2023-03-15T08:56:44.404Z,100541.28
2023-03-15T09:06:46.989Z,100537.03
2023-03-15T09:16:48.304Z,100533.31
2023-03-15T09:26:49.572Z,100529.84
2023-03-15T09:36:53.041Z,100533.41
2023-03-15T09:46:54.377Z,100545.34
2023-03-15T09:56:55.630Z,100552.63
2023-03-15T10:06:57.013Z,100563.88
2023-03-15T10:16:58.230Z,100567.41
2023-03-15T10:26:59.466Z,100588.72
2023-03-15T10:37:00.692Z,100620.91
2023-03-15T10:47:07.050Z,100621.41
2023-03-15T10:57:14.168Z,100607.63
2023-03-15T11:07:15.581Z,100598.88
2023-03-15T11:17:16.801Z,100599.28
2023-03-15T11:27:18.002Z,100584.25
2023-03-15T11:37:19.226Z,100594.69
2023-03-15T11:47:20.411Z,100592.13
2023-03-15T11:57:21.622Z,100575.25
2023-03-15T12:07:24.532Z,100574.69
2023-03-15T12:17:28.595Z,100580.75
2023-03-15T12:27:29.876Z,100579.84
2023-03-15T12:37:31.546Z,100589.44
2023-03-15T12:47:32.741Z,100594.53
2023-03-15T12:57:33.935Z,100589.25
2023-03-15T13:07:50.266Z,100589.38
2023-03-15T13:17:52.175Z,100574.59
2023-03-15T13:27:53.384Z,100571.28
2023-03-15T13:37:54.610Z,100568.69
2023-03-15T13:47:56.029Z,100563.47
2023-03-15T13:57:57.275Z,100561.72
2023-03-15T14:07:58.541Z,100561.75
2023-03-15T14:18:00.231Z,100548.72
2023-03-15T14:28:02.304Z,100539.97
2023-03-15T14:38:04.095Z,100539.97
2023-03-15T14:48:05.674Z,100547.72
2023-03-15T14:58:06.865Z,100553.88
2023-03-15T15:08:08.066Z,100583.47
2023-03-15T15:18:09.459Z,100582.59
2023-03-15T15:38:48.428Z,100594.72
2023-03-15T15:48:49.767Z,100584.31
2023-03-15T15:58:50.988Z,100593.00
2023-03-15T16:08:52.397Z,100596.50
2023-03-15T16:18:53.607Z,100611.22
2023-03-15T16:28:54.823Z,100612.03
2023-03-15T16:38:57.376Z,100611.97
2023-03-15T16:48:58.645Z,100633.59
2023-03-15T16:58:59.882Z,100645.69
2023-03-15T17:09:01.130Z,100653.38
2023-03-15T17:19:02.458Z,100664.50
2023-03-15T17:29:03.711Z,100679.03
2023-03-15T17:39:04.969Z,100679.69
2023-03-15T17:49:09.994Z,100690.66
2023-03-15T17:59:11.252Z,100705.22
2023-03-15T18:09:12.719Z,100709.50
2023-03-15T18:19:13.973Z,100729.22
2023-03-15T18:29:15.495Z,100730.56
2023-03-15T18:39:16.754Z,100745.88
2023-03-15T18:49:18.201Z,100750.75
2023-03-15T18:59:24.178Z,100733.31
2023-03-15T19:09:27.333Z,100745.13
2023-03-15T19:19:29.213Z,100746.53
2023-03-15T19:29:30.543Z,100753.28
2023-03-15T19:39:31.765Z,100760.72
2023-03-15T19:49:33.021Z,100769.16
2023-03-15T19:59:39.781Z,100779.13
2023-03-15T20:09:41.600Z,100769.34
2023-03-15T20:19:42.870Z,100787.13
2023-03-15T20:29:44.131Z,100788.53
2023-03-15T20:39:45.529Z,100791.56
2023-03-15T20:49:46.791Z,100786.06
2023-03-15T20:59:48.031Z,100797.06
2023-03-15T21:09:49.488Z,100801.00
2023-03-15T21:19:50.725Z,100797.97
2023-03-15T21:29:52.261Z,100810.78
2023-03-15T21:39:54.051Z,100810.44
2023-03-15T21:49:55.344Z,100805.06
2023-03-15T21:59:56.556Z,100808.25
2023-03-15T22:09:57.995Z,100807.91
2023-03-15T22:19:59.269Z,100805.03
2023-03-15T22:30:01.242Z,100805.53
2023-03-15T22:40:02.499Z,100800.03
2023-03-15T22:50:03.745Z,100796.38
2023-03-15T23:00:07.541Z,100795.88
2023-03-15T23:10:08.808Z,100792.19
2023-03-15T23:20:10.136Z,100792.53
2023-03-15T23:30:11.385Z,100790.47
2023-03-15T23:40:15.153Z,100785.16
2023-03-15T23:50:17.281Z,100781.63
